createdAt,value
2023-03-15T00:04:48.871Z,7.90
2023-03-15T00:09:51.161Z,6.30
2023-03-15T00:14:53.036Z,12.10
2023-03-15T00:19:55.321Z,6.40
2023-03-15T00:24:57.067Z,7.40
2023-03-15T00:29:59.381Z,9.50
2023-03-15T00:35:01.388Z,9.50
2023-03-15T00:40:04.420Z,5.00
2023-03-15T00:45:07.574Z,4.60
2023-03-15T00:55:13.580Z,4.50
2023-03-15T01:00:24.104Z,3.30
2023-03-15T01:05:26.342Z,5.20
2023-03-15T01:10:28.427Z,5.40
2023-03-15T01:15:30.427Z,8.30
2023-03-15T01:20:33.004Z,7.30
2023-03-15T01:25:34.772Z,4.30
2023-03-15T01:30:36.750Z,3.40
2023-03-15T01:35:38.662Z,4.50
2023-03-15T01:40:45.320Z,2.30
2023-03-15T01:45:58.970Z,3.50
2023-03-15T01:51:11.603Z,1.60
2023-03-15T01:56:14.804Z,2.80
2023-03-15T02:01:16.952Z,3.00
2023-03-15T02:06:20.551Z,5.80
2023-03-15T02:11:25.726Z,4.10
2023-03-15T02:16:29.330Z,6.20
2023-03-15T02:21:56.757Z,5.40
2023-03-15T02:26:58.575Z,6.20
2023-03-15T02:32:04.163Z,2.80
2023-03-15T02:37:06.285Z,3.10
2023-03-15T02:42:08.566Z,8.40
2023-03-15T02:47:18.634Z,4.20
2023-03-15T02:52:21.855Z,5.00
2023-03-15T02:57:23.626Z,7.40
2023-03-15T03:02:25.639Z,6.10
2023-03-15T03:07:27.582Z,4.40
2023-03-15T03:12:29.455Z,5.20
2023-03-15T03:17:31.230Z,2.40
2023-03-15T03:22:34.854Z,5.80
2023-03-15T03:27:36.826Z,4.80
2023-03-15T03:32:40.771Z,5.00
2023-03-15T03:37:42.728Z,3.50
2023-03-15T03:42:44.662Z,8.70
2023-03-15T03:47:47.601Z,6.60
2023-03-15T03:52:49.685Z,5.80
2023-03-15T03:57:54.732Z,11.20
2023-03-15T04:02:57.027Z,6.20
2023-03-15T04:07:58.895Z,6.20
2023-03-15T04:13:01.388Z,6.90
2023-03-15T04:18:05.428Z,10.90
2023-03-15T04:23:07.699Z,7.90
2023-03-15T04:28:12.524Z,11.70
2023-03-15T04:33:14.434Z,9.40
2023-03-15T04:38:16.307Z,9.70
2023-03-15T04:43:18.086Z,8.30
2023-03-15T04:48:19.867Z,7.40
2023-03-15T04:53:22.041Z,10.40
2023-03-15T04:58:23.923Z,10.40
2023-03-15T05:03:25.696Z,9.30
2023-03-15T05:08:27.418Z,7.00
2023-03-15T05:13:29.660Z,6.90
2023-03-15T05:18:31.533Z,12.70
2023-03-15T05:23:33.717Z,9.30
2023-03-15T05:28:35.484Z,9.80
2023-03-15T05:33:37.161Z,8.60
2023-03-15T05:38:39.031Z,8.10
2023-03-15T05:43:40.706Z,4.60
2023-03-15T05:48:42.378Z,5.30
2023-03-15T05:53:46.010Z,11.10
2023-03-15T05:58:48.280Z,13.70
2023-03-15T06:03:50.130Z,7.10
2023-03-15T06:08:51.926Z,9.60
2023-03-15T06:13:53.745Z,10.20
2023-03-15T06:18:55.477Z,6.10
2023-03-15T06:23:57.670Z,4.10
2023-03-15T06:28:59.532Z,5.90
2023-03-15T06:34:02.751Z,7.60
2023-03-15T06:39:05.305Z,4.80
2023-03-15T06:44:08.854Z,5.20
2023-03-15T06:49:10.843Z,4.70
2023-03-15T06:54:13.324Z,6.90
2023-03-15T06:59:15.421Z,9.20
2023-03-15T07:04:17.598Z,6.10
2023-03-15T07:09:20.082Z,6.90
2023-03-15T07:14:22.173Z,6.80
2023-03-15T07:19:23.836Z,8.10
2023-03-15T07:24:26.945Z,10.90
2023-03-15T07:34:30.820Z,6.10
2023-03-15T07:39:33.800Z,11.90
2023-03-15T07:44:35.881Z,10.10
2023-03-15T07:49:38.176Z,7.60
2023-03-15T07:54:40.454Z,8.60
2023-03-15T07:59:42.434Z,5.90
2023-03-15T08:04:44.512Z,7.90
2023-03-15T08:09:46.293Z,6.20
2023-03-15T08:14:48.065Z,6.80
2023-03-15T08:19:49.835Z,6.70
2023-03-15T08:24:52.807Z,7.90
2023-03-15T08:29:54.850Z,6.00
2023-03-15T08:34:56.649Z,10.60
2023-03-15T08:40:05.307Z,6.50
2023-03-15T08:45:09.767Z,5.70
2023-03-15T08:50:16.554Z,7.60
2023-03-15T08:55:19.252Z,8.00
2023-03-15T09:00:22.244Z,4.80
2023-03-15T09:05:26.080Z,9.10
2023-03-15T09:10:28.054Z,6.90
2023-03-15T09:15:30.140Z,5.50
2023-03-15T09:20:31.933Z,8.20
2023-03-15T09:25:33.790Z,4.40
2023-03-15T09:30:37.875Z,6.10
2023-03-15T09:35:41.347Z,3.90
2023-03-15T09:40:45.661Z,4.00
2023-03-15T09:46:11.562Z,5.60
2023-03-15T09:51:24.651Z,7.20
2023-03-15T09:56:55.412Z,4.40
2023-03-15T10:02:01.616Z,8.10
2023-03-15T10:07:05.919Z,8.10
2023-03-15T10:12:27.150Z,6.30
2023-03-15T10:17:59.856Z,4.00
2023-03-15T10:23:09.917Z,7.70
2023-03-15T10:28:25.534Z,7.70
2023-03-15T10:33:37.733Z,8.70
2023-03-15T10:38:41.344Z,7.80
2023-03-15T10:43:58.072Z,4.90
2023-03-15T10:49:11.623Z,4.20
2023-03-15T10:54:18.928Z,4.00
2023-03-15T10:59:24.383Z,3.10
2023-03-15T11:04:27.390Z,5.50
2023-03-15T11:09:44.317Z,6.20
2023-03-15T11:14:48.445Z,6.70
2023-03-15T11:19:59.423Z,6.70
2023-03-15T11:25:01.648Z,6.50
2023-03-15T11:30:05.615Z,3.00
2023-03-15T11:35:15.110Z,6.70
2023-03-15T11:40:53.432Z,9.00
2023-03-15T11:46:13.544Z,5.90
2023-03-15T11:51:16.955Z,6.50
2023-03-15T12:02:21.051Z,6.90
2023-03-15T12:07:28.331Z,7.30
2023-03-15T12:12:30.411Z,7.60
2023-03-15T12:17:49.591Z,6.40
2023-03-15T12:22:53.825Z,7.20
2023-03-15T12:27:58.357Z,10.70
2023-03-15T12:33:02.975Z,11.00
2023-03-15T12:38:16.853Z,7.20
2023-03-15T12:43:44.537Z,8.90
2023-03-15T12:49:11.914Z,4.50
2023-03-15T12:54:16.856Z,6.60
2023-03-15T12:59:54.696Z,4.90
2023-03-15T13:05:28.934Z,5.50
2023-03-15T13:11:05.196Z,4.30
2023-03-15T13:16:19.417Z,5.30
2023-03-15T13:21:31.988Z,11.20
2023-03-15T13:26:50.565Z,2.70
2023-03-15T13:32:12.204Z,4.20
2023-03-15T13:37:25.057Z,7.10
2023-03-15T13:42:27.425Z,4.40
2023-03-15T13:47:29.399Z,5.30
2023-03-15T13:52:31.688Z,32.10
2023-03-15T13:57:35.199Z,26.40
2023-03-15T14:02:42.953Z,7.60
2023-03-15T14:07:49.311Z,5.30
2023-03-15T14:12:52.492Z,5.50
2023-03-15T14:23:04.350Z,3.10
2023-03-15T14:28:06.494Z,7.10
2023-03-15T14:33:32.281Z,6.50
2023-03-15T14:38:39.502Z,9.90
2023-03-15T14:43:41.349Z,36.30
2023-03-15T14:48:44.150Z,8.70
2023-03-15T14:53:48.590Z,7.20
2023-03-15T14:58:53.533Z,22.60
2023-03-15T15:04:02.890Z,77.30
2023-03-15T15:09:06.440Z,37.00
2023-03-15T15:14:15.187Z,8.40
2023-03-15T15:19:17.117Z,53.10
2023-03-15T15:24:22.780Z,22.10
2023-03-15T15:29:24.966Z,14.50
2023-03-15T15:34:26.741Z,16.00
2023-03-15T15:39:29.240Z,7.70
2023-03-15T15:44:31.009Z,54.40
2023-03-15T15:49:33.185Z,33.90
2023-03-15T15:54:35.951Z,12.50
2023-03-15T15:59:38.028Z,12.50
2023-03-15T16:04:42.238Z,53.10
2023-03-15T16:09:48.746Z,143.00
2023-03-15T16:14:51.989Z,92.40
2023-03-15T16:19:55.304Z,72.30
2023-03-15T16:25:01.496Z,114.90
2023-03-15T16:30:09.946Z,48.50
2023-03-15T16:35:16.283Z,33.20
2023-03-15T16:40:27.378Z,70.70
2023-03-15T16:45:29.884Z,103.00
2023-03-15T16:50:32.993Z,157.40
2023-03-15T16:55:36.170Z,102.30
2023-03-15T17:00:44.601Z,255.20
2023-03-15T17:05:49.262Z,292.00
2023-03-15T17:10:51.852Z,312.30
2023-03-15T17:15:54.064Z,200.80
2023-03-15T17:20:56.328Z,200.50
2023-03-15T17:25:58.412Z,187.70
2023-03-15T17:31:20.258Z,195.90
2023-03-15T17:36:25.412Z,234.90
2023-03-15T17:41:36.809Z,217.40
2023-03-15T17:46:38.760Z,239.40
2023-03-15T17:51:41.102Z,213.70
2023-03-15T17:56:43.484Z,477.00
2023-03-15T18:01:48.311Z,379.70
2023-03-15T18:06:50.290Z,329.30
2023-03-15T18:11:52.278Z,320.30
2023-03-15T18:16:54.123Z,352.40
2023-03-15T18:21:56.437Z,293.80
2023-03-15T18:27:00.252Z,325.10
2023-03-15T18:32:03.088Z,338.50
2023-03-15T18:37:05.440Z,307.10
2023-03-15T18:42:08.746Z,292.80
2023-03-15T18:52:16.162Z,267.90
2023-03-15T18:57:20.608Z,226.20
2023-03-15T19:02:23.046Z,217.40
2023-03-15T19:07:27.455Z,198.80
2023-03-15T19:12:29.536Z,201.70
2023-03-15T19:17:31.305Z,171.60
2023-03-15T19:22:33.901Z,150.60
2023-03-15T19:27:37.742Z,160.20
2023-03-15T19:32:42.641Z,132.80
2023-03-15T19:37:46.188Z,134.90
2023-03-15T19:42:49.301Z,93.00
2023-03-15T19:52:53.150Z,87.60
2023-03-15T19:57:55.436Z,147.90
2023-03-15T20:02:58.032Z,207.70
2023-03-15T20:08:01.761Z,244.00
2023-03-15T20:13:05.267Z,353.10
2023-03-15T20:18:10.315Z,448.10
2023-03-15T20:23:13.035Z,360.00
2023-03-15T20:28:18.297Z,268.70
2023-03-15T20:33:20.666Z,296.00
2023-03-15T20:38:23.058Z,451.80
2023-03-15T20:43:26.592Z,469.80
2023-03-15T20:48:30.822Z,448.20
2023-03-15T20:53:35.286Z,385.00
2023-03-15T20:58:37.105Z,312.30
2023-03-15T21:03:39.318Z,280.70
2023-03-15T21:08:43.422Z,244.90
2023-03-15T21:13:46.434Z,228.60
2023-03-15T21:18:51.380Z,229.90
2023-03-15T21:23:53.983Z,178.10
2023-03-15T21:28:56.352Z,85.60
2023-03-15T21:33:58.227Z,65.40
2023-03-15T21:39:01.134Z,90.20
2023-03-15T21:44:05.351Z,111.20
2023-03-15T21:49:08.251Z,150.70
2023-03-15T21:59:14.360Z,205.20
2023-03-15T22:04:16.923Z,193.00
2023-03-15T22:09:20.444Z,155.20
2023-03-15T22:14:23.681Z,125.00
2023-03-15T22:19:25.765Z,103.40
2023-03-15T22:24:27.755Z,89.10
2023-03-15T22:29:29.622Z,84.80
2023-03-15T22:34:33.712Z,76.70
2023-03-15T22:39:35.936Z,73.80
2023-03-15T22:44:37.622Z,45.20
2023-03-15T22:49:39.531Z,37.70
2023-03-15T22:54:43.105Z,73.60
2023-03-15T22:59:44.781Z,60.00
2023-03-15T23:04:46.581Z,85.50
2023-03-15T23:09:48.431Z,94.40
2023-03-15T23:14:51.436Z,113.70
2023-03-15T23:19:53.312Z,100.70
2023-03-15T23:24:57.546Z,76.70
2023-03-15T23:29:59.529Z,56.80
2023-03-15T23:35:06.877Z,47.70
2023-03-15T23:40:14.968Z,57.00
2023-03-15T23:45:16.834Z,62.50
2023-03-15T23:50:19.121Z,62.10
2023-03-15T23:55:22.123Z,57.50
